Time;durP1;ratioP1;P1;durP2;ratioP2;P2;SDS_P1;SDS_P2;PMS_P1;PMS_P2;Temp;Humidity;BMP_temperature;BMP_pressure;BME280_temperature;BME280_humidity;BME280_pressure;Samples;Min_cycle;Max_cycle;Signal;HPM_P1;HPM_P2
2022/06/24 00:01:33;;;;;;;6.75;3.75;;;;;;;;;;5038866;28;20037;-65
2022/06/24 00:03:59;;;;;;;6.57;4.15;;;;;;;;;;5045074;28;20053;-64
2022/06/24 00:06:29;;;;;;;12.70;3.78;;;;;;;;;;5036899;28;20045;-64
2022/06/24 00:09:01;;;;;;;8.35;4.38;;;;;;;;;;5038512;28;20041;-64
2022/06/24 00:11:28;;;;;;;11.02;4.68;;;;;;;;;;5038619;28;20136;-64
2022/06/24 00:14:05;;;;;;;9.00;5.15;;;;;;;;;;5006619;28;20047;-64
2022/06/24 00:16:31;;;;;;;8.80;4.40;;;;;;;;;;4981974;28;20474;-64
2022/06/24 00:19:09;;;;;;;11.52;4.90;;;;;;;;;;4979431;28;20073;-64
2022/06/24 00:21:35;;;;;;;6.38;4.65;;;;;;;;;;4981302;28;20046;-64
2022/06/24 00:24:01;;;;;;;9.75;4.90;;;;;;;;;;4966509;28;20038;-64
2022/06/24 00:26:42;;;;;;;8.32;5.60;;;;;;;;;;4962975;28;20531;-64
2022/06/24 00:29:08;;;;;;;10.63;6.07;;;;;;;;;;4979765;28;20084;-64
2022/06/24 00:31:34;;;;;;;11.27;6.28;;;;;;;;;;4967554;28;20053;-64
2022/06/24 00:34:00;;;;;;;8.95;6.75;;;;;;;;;;4967539;28;20054;-64
2022/06/24 00:36:27;;;;;;;10.70;6.57;;;;;;;;;;4981343;28;20073;-65
2022/06/24 00:38:53;;;;;;;13.18;7.13;;;;;;;;;;4978376;28;20055;-64
2022/06/24 00:41:24;;;;;;;12.43;7.72;;;;;;;;;;4979950;28;20460;-64
2022/06/24 00:43:54;;;;;;;16.30;7.65;;;;;;;;;;4979247;28;20039;-64
2022/06/24 00:46:24;;;;;;;13.93;8.13;;;;;;;;;;4981412;28;20402;-64
2022/06/24 00:48:51;;;;;;;12.55;7.50;;;;;;;;;;4965981;28;20138;-64
2022/06/24 00:51:18;;;;;;;14.63;7.82;;;;;;;;;;4980391;28;20542;-64
2022/06/24 00:53:47;;;;;;;11.95;8.63;;;;;;;;;;4964324;28;20046;-65
2022/06/24 00:56:14;;;;;;;14.27;8.95;;;;;;;;;;4978549;28;20525;-64
2022/06/24 00:58:40;;;;;;;15.77;9.95;;;;;;;;;;4980029;28;20054;-65
2022/06/24 01:01:07;;;;;;;15.80;10.25;;;;;;;;;;4962584;28;20053;-64
2022/06/24 01:03:37;;;;;;;16.13;10.55;;;;;;;;;;4978147;28;20050;-64
2022/06/24 01:06:04;;;;;;;13.88;10.43;;;;;;;;;;4965487;28;20149;-63
2022/06/24 01:08:30;;;;;;;13.40;10.15;;;;;;;;;;4978720;28;20108;-65
2022/06/24 01:10:56;;;;;;;16.10;8.40;;;;;;;;;;4979849;28;20038;-65
2022/06/24 01:13:23;;;;;;;14.23;7.72;;;;;;;;;;4978936;28;20058;-65
2022/06/24 01:15:49;;;;;;;12.10;7.32;;;;;;;;;;4979142;28;20042;-64
2022/06/24 01:18:16;;;;;;;8.18;5.55;;;;;;;;;;4962924;28;20143;-64
2022/06/24 01:20:42;;;;;;;13.15;6.93;;;;;;;;;;4985230;28;20350;-64
2022/06/24 01:23:08;;;;;;;11.60;6.30;;;;;;;;;;4983090;28;20046;-64
2022/06/24 01:25:34;;;;;;;9.75;5.22;;;;;;;;;;4984464;28;20036;-64
2022/06/24 01:28:01;;;;;;;8.85;4.65;;;;;;;;;;4981639;28;20524;-64
2022/06/24 01:30:27;;;;;;;8.38;4.63;;;;;;;;;;4981061;28;20349;-65
2022/06/24 01:32:54;;;;;;;9.05;4.57;;;;;;;;;;4982464;28;20042;-64
2022/06/24 01:35:20;;;;;;;7.25;4.43;;;;;;;;;;4964862;28;20050;-64
2022/06/24 01:37:47;;;;;;;6.97;5.10;;;;;;;;;;4981583;28;20047;-64
2022/06/24 01:40:13;;;;;;;7.82;4.53;;;;;;;;;;4965371;28;20046;-64
2022/06/24 01:42:39;;;;;;;7.90;4.50;;;;;;;;;;4974260;28;20054;-64
2022/06/24 01:45:06;;;;;;;8.90;4.68;;;;;;;;;;4976437;28;20039;-64
2022/06/24 01:47:32;;;;;;;9.88;4.90;;;;;;;;;;4980117;28;20047;-65
2022/06/24 01:49:58;;;;;;;8.38;4.75;;;;;;;;;;4963668;28;20077;-64
2022/06/24 01:52:24;;;;;;;6.20;3.85;;;;;;;;;;4981163;28;20046;-64
2022/06/24 01:54:50;;;;;;;6.20;4.82;;;;;;;;;;4981247;28;20037;-65
2022/06/24 01:57:16;;;;;;;10.20;4.35;;;;;;;;;;4977433;28;20746;-64
2022/06/24 01:59:43;;;;;;;9.35;5.13;;;;;;;;;;4981293;28;20364;-64
2022/06/24 02:02:09;;;;;;;9.18;4.38;;;;;;;;;;4959465;28;20142;-65
2022/06/24 02:04:35;;;;;;;6.38;4.90;;;;;;;;;;4982603;28;20050;-65
2022/06/24 02:07:01;;;;;;;7.68;4.97;;;;;;;;;;4986319;28;20172;-65
2022/06/24 02:09:28;;;;;;;7.45;5.28;;;;;;;;;;4989247;28;20049;-64
2022/06/24 02:14:39;;;;;;;6.40;4.50;;;;;;;;;;4979780;28;20074;-64
2022/06/24 02:17:05;;;;;;;8.23;5.25;;;;;;;;;;4962518;28;20400;-65
2022/06/24 02:19:32;;;;;;;8.45;5.00;;;;;;;;;;4979792;28;20112;-64
2022/06/24 02:21:59;;;;;;;10.70;4.82;;;;;;;;;;4980382;28;20059;-64
2022/06/24 02:24:25;;;;;;;8.57;5.05;;;;;;;;;;4982684;28;20179;-64
2022/06/24 02:26:51;;;;;;;10.85;5.90;;;;;;;;;;4979953;28;20068;-65
2022/06/24 02:29:17;;;;;;;6.57;4.40;;;;;;;;;;4966663;28;20562;-65
2022/06/24 02:31:43;;;;;;;14.07;5.65;;;;;;;;;;4958653;28;20083;-64
2022/06/24 02:34:10;;;;;;;7.07;5.35;;;;;;;;;;4963890;28;20103;-64
2022/06/24 02:36:36;;;;;;;7.60;4.72;;;;;;;;;;4962019;28;20045;-65
2022/06/24 02:39:02;;;;;;;8.35;4.72;;;;;;;;;;4972258;28;20048;-65
2022/06/24 02:41:28;;;;;;;7.65;4.60;;;;;;;;;;4977354;28;20378;-65
2022/06/24 02:43:55;;;;;;;8.35;4.40;;;;;;;;;;4979508;28;20046;-64
2022/06/24 02:46:21;;;;;;;6.32;4.80;;;;;;;;;;4980575;28;20501;-64
2022/06/24 02:48:47;;;;;;;8.73;4.82;;;;;;;;;;4963256;28;20492;-65
2022/06/24 02:51:14;;;;;;;10.85;4.60;;;;;;;;;;4975706;28;20050;-64
2022/06/24 02:53:41;;;;;;;7.53;5.57;;;;;;;;;;4968556;28;20046;-64
2022/06/24 02:56:09;;;;;;;9.30;5.07;;;;;;;;;;4985273;28;20536;-64
2022/06/24 02:58:36;;;;;;;7.10;5.20;;;;;;;;;;4973126;28;20058;-64
2022/06/24 03:01:02;;;;;;;11.00;5.40;;;;;;;;;;4988350;28;20466;-65
2022/06/24 03:03:28;;;;;;;14.60;5.25;;;;;;;;;;4985430;28;20128;-64
2022/06/24 03:05:55;;;;;;;12.52;5.82;;;;;;;;;;4988107;28;20334;-65
2022/06/24 03:08:22;;;;;;;11.10;5.50;;;;;;;;;;4988280;28;20042;-64
2022/06/24 03:10:49;;;;;;;8.70;5.32;;;;;;;;;;4971050;28;21243;-65
2022/06/24 03:13:15;;;;;;;9.90;5.60;;;;;;;;;;4970040;28;20062;-64
2022/06/24 03:15:43;;;;;;;8.90;5.10;;;;;;;;;;4985269;28;20173;-64
2022/06/24 03:18:11;;;;;;;9.40;5.95;;;;;;;;;;4987533;28;20045;-64
2022/06/24 03:20:37;;;;;;;12.70;6.20;;;;;;;;;;4986945;28;20057;-64
2022/06/24 03:23:04;;;;;;;8.27;5.85;;;;;;;;;;4982625;28;20053;-64
2022/06/24 03:25:30;;;;;;;9.80;5.70;;;;;;;;;;4963251;28;20129;-64
2022/06/24 03:27:56;;;;;;;7.60;6.32;;;;;;;;;;4983572;28;20084;-64
2022/06/24 03:30:23;;;;;;;8.50;6.00;;;;;;;;;;4982394;28;20167;-64
2022/06/24 03:32:49;;;;;;;9.43;6.22;;;;;;;;;;4987571;28;20054;-65
2022/06/24 03:35:15;;;;;;;8.27;6.07;;;;;;;;;;4964602;28;20050;-65
2022/06/24 03:37:41;;;;;;;9.27;6.50;;;;;;;;;;4979045;28;20185;-65
2022/06/24 03:40:08;;;;;;;9.43;5.32;;;;;;;;;;4976008;28;20365;-65
2022/06/24 03:42:34;;;;;;;8.55;5.47;;;;;;;;;;4981605;28;20165;-64
2022/06/24 03:45:01;;;;;;;7.63;5.32;;;;;;;;;;4962392;28;20046;-65
2022/06/24 03:47:27;;;;;;;10.48;6.57;;;;;;;;;;4960227;28;20065;-65
2022/06/24 03:49:53;;;;;;;7.78;6.15;;;;;;;;;;4962104;28;20668;-65
2022/06/24 03:52:19;;;;;;;8.55;6.20;;;;;;;;;;4962491;28;20046;-65
2022/06/24 03:54:46;;;;;;;10.00;6.45;;;;;;;;;;4982080;28;20082;-65
2022/06/24 03:57:12;;;;;;;12.57;6.68;;;;;;;;;;4965973;28;20046;-65
2022/06/24 03:59:38;;;;;;;10.55;6.25;;;;;;;;;;4977219;28;20046;-65
2022/06/24 04:02:04;;;;;;;12.73;8.48;;;;;;;;;;4981479;28;20041;-65
2022/06/24 04:04:31;;;;;;;13.07;9.52;;;;;;;;;;4979053;28;20053;-64
2022/06/24 04:06:57;;;;;;;16.75;10.80;;;;;;;;;;4977422;28;21374;-65
2022/06/24 04:09:23;;;;;;;15.27;9.25;;;;;;;;;;4963751;28;20641;-65
2022/06/24 04:11:49;;;;;;;13.05;10.32;;;;;;;;;;4978688;28;20155;-66
2022/06/24 04:17:02;;;;;;;20.10;13.50;;;;;;;;;;4984340;28;20054;-65
2022/06/24 04:19:28;;;;;;;23.10;16.02;;;;;;;;;;4963767;28;20078;-65
2022/06/24 04:21:54;;;;;;;22.88;15.45;;;;;;;;;;4982197;28;20051;-65
2022/06/24 04:24:20;;;;;;;28.65;17.58;;;;;;;;;;4959487;28;20047;-65
2022/06/24 04:26:46;;;;;;;28.38;17.38;;;;;;;;;;4955567;28;20042;-65
2022/06/24 04:29:12;;;;;;;24.80;16.55;;;;;;;;;;4981047;28;20493;-63
2022/06/24 04:31:39;;;;;;;27.33;19.00;;;;;;;;;;4978775;28;20073;-63
2022/06/24 04:34:05;;;;;;;24.60;19.20;;;;;;;;;;4985655;28;20034;-63
2022/06/24 04:36:31;;;;;;;26.58;18.92;;;;;;;;;;4968307;28;20051;-64
2022/06/24 04:38:57;;;;;;;28.42;17.30;;;;;;;;;;4983307;28;20050;-63
2022/06/24 04:41:23;;;;;;;26.73;14.60;;;;;;;;;;4982324;28;20591;-63
2022/06/24 04:43:49;;;;;;;32.95;10.35;;;;;;;;;;4964177;28;20653;-63
2022/06/24 04:46:16;;;;;;;25.30;9.15;;;;;;;;;;4982433;28;20137;-63
2022/06/24 04:48:42;;;;;;;28.73;7.85;;;;;;;;;;4983433;28;20091;-63
2022/06/24 04:51:11;;;;;;;27.48;8.93;;;;;;;;;;4982152;28;20045;-63
2022/06/24 04:53:37;;;;;;;21.20;6.57;;;;;;;;;;4981282;28;20794;-64
2022/06/24 04:56:03;;;;;;;18.45;6.15;;;;;;;;;;4983318;28;20061;-63
2022/06/24 04:58:30;;;;;;;24.75;6.85;;;;;;;;;;4966410;28;20053;-64
2022/06/24 05:00:56;;;;;;;20.73;6.68;;;;;;;;;;4982327;28;20099;-63
2022/06/24 05:03:22;;;;;;;15.68;5.47;;;;;;;;;;4981095;28;20046;-63
2022/06/24 05:05:48;;;;;;;14.18;4.35;;;;;;;;;;4982280;28;20042;-63
2022/06/24 05:08:14;;;;;;;13.93;4.25;;;;;;;;;;4984749;28;21858;-63
2022/06/24 05:10:41;;;;;;;8.80;4.00;;;;;;;;;;4986510;28;20047;-64
2022/06/24 05:13:08;;;;;;;10.32;3.85;;;;;;;;;;4966472;28;20413;-63
2022/06/24 05:15:34;;;;;;;11.00;4.00;;;;;;;;;;4987225;28;20054;-63
2022/06/24 05:18:00;;;;;;;9.77;3.85;;;;;;;;;;4985894;28;20042;-63
2022/06/24 05:20:27;;;;;;;9.70;3.70;;;;;;;;;;4986133;28;20081;-64
2022/06/24 05:22:53;;;;;;;6.80;3.60;;;;;;;;;;4987236;28;20046;-64
2022/06/24 05:25:19;;;;;;;9.32;4.05;;;;;;;;;;4984622;28;20050;-66
2022/06/24 05:27:45;;;;;;;12.13;4.30;;;;;;;;;;4984217;28;20413;-65
2022/06/24 05:30:11;;;;;;;9.60;3.75;;;;;;;;;;4986149;28;20061;-65
2022/06/24 05:32:38;;;;;;;9.15;3.90;;;;;;;;;;4987697;28;20134;-65
2022/06/24 05:35:06;;;;;;;10.80;4.07;;;;;;;;;;4969118;28;20135;-65
2022/06/24 05:37:33;;;;;;;10.55;3.75;;;;;;;;;;4986529;28;20095;-65
2022/06/24 05:39:59;;;;;;;13.30;4.53;;;;;;;;;;4986603;28;20121;-65
2022/06/24 05:42:25;;;;;;;8.88;3.70;;;;;;;;;;4991863;28;20068;-65
2022/06/24 05:44:52;;;;;;;15.68;4.50;;;;;;;;;;4969310;28;20042;-65
2022/06/24 05:47:18;;;;;;;9.93;3.75;;;;;;;;;;4986265;28;20080;-65
2022/06/24 05:49:44;;;;;;;8.68;3.97;;;;;;;;;;4988555;28;20038;-65
2022/06/24 05:52:10;;;;;;;11.57;4.32;;;;;;;;;;4968315;28;21556;-65
2022/06/24 05:57:21;;;;;;;11.02;4.03;;;;;;;;;;4983789;28;20047;-65
2022/06/24 05:59:47;;;;;;;11.40;3.85;;;;;;;;;;4967628;28;20059;-65
2022/06/24 06:02:13;;;;;;;10.63;3.55;;;;;;;;;;4983771;28;20053;-65
2022/06/24 06:04:40;;;;;;;12.57;3.47;;;;;;;;;;4981649;28;20504;-65
2022/06/24 06:07:06;;;;;;;11.63;3.33;;;;;;;;;;4981348;28;20053;-65
2022/06/24 06:09:33;;;;;;;10.10;3.20;;;;;;;;;;4958860;28;20159;-65
2022/06/24 06:11:59;;;;;;;13.57;3.40;;;;;;;;;;4977069;28;20395;-65
2022/06/24 06:14:26;;;;;;;9.80;3.10;;;;;;;;;;4973805;28;20082;-65
2022/06/24 06:16:52;;;;;;;11.70;3.17;;;;;;;;;;4966622;28;20062;-65
2022/06/24 06:19:18;;;;;;;9.88;3.40;;;;;;;;;;4980101;28;20142;-65
2022/06/24 06:21:45;;;;;;;11.68;4.10;;;;;;;;;;4962118;28;21870;-65
2022/06/24 06:24:11;;;;;;;13.23;3.22;;;;;;;;;;4979215;28;20136;-65
2022/06/24 06:26:38;;;;;;;12.10;3.85;;;;;;;;;;4979983;28;20499;-65
2022/06/24 06:29:05;;;;;;;19.40;4.35;;;;;;;;;;4983243;28;20095;-65
2022/06/24 06:31:31;;;;;;;11.77;4.00;;;;;;;;;;4983500;28;20050;-65
2022/06/24 06:33:58;;;;;;;13.02;4.20;;;;;;;;;;4981964;28;20474;-65
2022/06/24 06:36:24;;;;;;;17.77;5.13;;;;;;;;;;4982409;28;20049;-65
2022/06/24 06:38:50;;;;;;;10.57;3.88;;;;;;;;;;4980620;28;20145;-65
2022/06/24 06:41:17;;;;;;;15.70;3.97;;;;;;;;;;4980858;28;20043;-65
2022/06/24 06:43:44;;;;;;;13.82;4.60;;;;;;;;;;4976934;28;20047;-65
2022/06/24 06:46:10;;;;;;;12.60;4.38;;;;;;;;;;4978826;28;20034;-66
2022/06/24 06:48:36;;;;;;;13.70;5.22;;;;;;;;;;4979988;28;20350;-65
2022/06/24 06:51:03;;;;;;;17.00;5.15;;;;;;;;;;4965000;28;20346;-65
2022/06/24 06:53:29;;;;;;;13.73;5.45;;;;;;;;;;4970180;28;20050;-65
2022/06/24 06:55:55;;;;;;;16.83;6.45;;;;;;;;;;4968548;28;20472;-72
2022/06/24 06:58:22;;;;;;;11.20;5.50;;;;;;;;;;4980617;28;20042;-66
2022/06/24 07:00:48;;;;;;;17.92;5.85;;;;;;;;;;4981295;28;20103;-65
2022/06/24 07:03:15;;;;;;;12.30;6.15;;;;;;;;;;4982885;28;20114;-65
2022/06/24 07:05:44;;;;;;;13.38;6.28;;;;;;;;;;4978646;28;20216;-65
2022/06/24 07:08:11;;;;;;;14.38;6.18;;;;;;;;;;4977651;28;20054;-65
2022/06/24 07:10:38;;;;;;;18.73;7.80;;;;;;;;;;4978442;28;20070;-65
2022/06/24 07:13:04;;;;;;;17.65;7.35;;;;;;;;;;4981059;28;20094;-66
2022/06/24 07:15:30;;;;;;;14.73;7.57;;;;;;;;;;4975163;28;20058;-65
2022/06/24 07:17:56;;;;;;;14.65;6.93;;;;;;;;;;4962412;28;20115;-65
2022/06/24 07:20:22;;;;;;;14.55;7.78;;;;;;;;;;4980117;28;20095;-65
2022/06/24 07:22:49;;;;;;;14.77;7.72;;;;;;;;;;4974442;28;20129;-65
2022/06/24 07:25:15;;;;;;;13.15;7.32;;;;;;;;;;4982570;28;20053;-65
2022/06/24 07:27:41;;;;;;;13.13;7.93;;;;;;;;;;4953185;28;20509;-65
2022/06/24 07:30:07;;;;;;;16.77;7.88;;;;;;;;;;4983498;28;20054;-65
2022/06/24 07:32:34;;;;;;;13.75;8.02;;;;;;;;;;4987317;28;20141;-65
2022/06/24 07:35:00;;;;;;;13.07;7.55;;;;;;;;;;4971365;28;20038;-65
2022/06/24 07:37:26;;;;;;;16.05;8.50;;;;;;;;;;4951503;28;20543;-65
2022/06/24 07:39:52;;;;;;;17.92;7.68;;;;;;;;;;4967865;28;20394;-65
2022/06/24 07:42:18;;;;;;;14.55;8.05;;;;;;;;;;4984499;28;20039;-65
2022/06/24 07:44:44;;;;;;;13.18;7.75;;;;;;;;;;4986631;28;20042;-65
2022/06/24 07:47:11;;;;;;;14.77;7.55;;;;;;;;;;4987521;28;20275;-65
2022/06/24 07:49:37;;;;;;;14.75;8.02;;;;;;;;;;4987221;28;20125;-65
2022/06/24 07:52:04;;;;;;;12.35;7.03;;;;;;;;;;4984574;28;20125;-65
2022/06/24 07:54:31;;;;;;;12.68;7.68;;;;;;;;;;4988121;28;20413;-65
2022/06/24 07:56:57;;;;;;;14.02;6.78;;;;;;;;;;4986804;28;20054;-65
2022/06/24 07:59:27;;;;;;;17.60;7.22;;;;;;;;;;4969573;28;20054;-65
2022/06/24 08:01:54;;;;;;;16.63;7.00;;;;;;;;;;4984217;28;20047;-65
2022/06/24 08:04:21;;;;;;;15.02;7.50;;;;;;;;;;4978206;28;20073;-65
2022/06/24 08:06:49;;;;;;;14.13;7.40;;;;;;;;;;4982365;28;20402;-65
2022/06/24 08:09:17;;;;;;;12.80;6.88;;;;;;;;;;4982075;28;20062;-65
2022/06/24 08:11:44;;;;;;;18.50;7.70;;;;;;;;;;4981547;28;20042;-65
2022/06/24 08:14:10;;;;;;;21.80;8.18;;;;;;;;;;4959685;28;20078;-65
2022/06/24 08:16:36;;;;;;;17.85;7.40;;;;;;;;;;4964504;28;20093;-65
2022/06/24 08:19:03;;;;;;;14.90;7.25;;;;;;;;;;4949344;28;20070;-65
2022/06/24 08:21:29;;;;;;;14.73;7.53;;;;;;;;;;4979713;28;20061;-65
2022/06/24 08:23:55;;;;;;;17.58;7.03;;;;;;;;;;4959906;28;20092;-65
2022/06/24 08:26:22;;;;;;;12.63;7.80;;;;;;;;;;4982825;28;20472;-65
2022/06/24 08:28:48;;;;;;;13.93;7.32;;;;;;;;;;4979823;28;20038;-65
2022/06/24 08:31:14;;;;;;;15.30;7.40;;;;;;;;;;4962405;28;20118;-65
2022/06/24 08:33:40;;;;;;;15.82;7.53;;;;;;;;;;4982394;28;20467;-65
2022/06/24 08:36:06;;;;;;;14.50;7.72;;;;;;;;;;4979775;28;20039;-65
2022/06/24 08:38:33;;;;;;;13.00;7.75;;;;;;;;;;4964980;28;20104;-65
2022/06/24 08:41:01;;;;;;;17.52;8.27;;;;;;;;;;4967483;28;20046;-65
2022/06/24 08:43:30;;;;;;;16.70;8.63;;;;;;;;;;4978004;28;20157;-65
2022/06/24 08:45:57;;;;;;;10.80;6.85;;;;;;;;;;4979080;28;20126;-65
2022/06/24 08:48:24;;;;;;;14.60;7.47;;;;;;;;;;4980335;28;20061;-65
2022/06/24 08:50:50;;;;;;;11.55;7.35;;;;;;;;;;4980617;28;20418;-65
2022/06/24 08:53:17;;;;;;;11.75;7.30;;;;;;;;;;4983389;28;20116;-64
2022/06/24 08:55:48;;;;;;;15.65;8.38;;;;;;;;;;4975393;28;20490;-65
2022/06/24 08:58:15;;;;;;;13.20;7.63;;;;;;;;;;4975799;28;20402;-65
2022/06/24 09:00:41;;;;;;;14.35;8.15;;;;;;;;;;4962484;28;20088;-66
2022/06/24 09:03:08;;;;;;;12.75;8.27;;;;;;;;;;4965435;28;20508;-65
2022/06/24 09:05:35;;;;;;;13.75;8.50;;;;;;;;;;4976005;28;20046;-65
2022/06/24 09:08:06;;;;;;;12.10;8.15;;;;;;;;;;4957249;28;20159;-65
2022/06/24 09:10:32;;;;;;;10.30;7.55;;;;;;;;;;4982963;28;20043;-65
2022/06/24 09:12:58;;;;;;;13.25;6.43;;;;;;;;;;4964669;28;20045;-65
2022/06/24 09:15:25;;;;;;;12.55;7.22;;;;;;;;;;4977542;28;20559;-65
2022/06/24 09:17:51;;;;;;;12.07;6.55;;;;;;;;;;4964671;28;20050;-65
2022/06/24 09:20:19;;;;;;;11.13;6.30;;;;;;;;;;4985157;28;20409;-65
2022/06/24 09:22:47;;;;;;;12.05;6.28;;;;;;;;;;4973269;28;20043;-65
2022/06/24 09:25:13;;;;;;;13.40;6.70;;;;;;;;;;4976861;28;20196;-65
2022/06/24 09:27:45;;;;;;;10.73;6.15;;;;;;;;;;4962159;28;20120;-65
2022/06/24 09:30:13;;;;;;;10.80;6.33;;;;;;;;;;4979530;28;20043;-65
2022/06/24 09:32:55;;;;;;;17.08;6.07;;;;;;;;;;4981158;28;20050;-65
2022/06/24 09:35:22;;;;;;;10.20;6.22;;;;;;;;;;4985452;28;20421;-65
2022/06/24 09:37:49;;;;;;;12.85;6.22;;;;;;;;;;4985038;28;20073;-65
2022/06/24 09:40:23;;;;;;;13.35;6.35;;;;;;;;;;4984907;28;20555;-65
2022/06/24 09:42:56;;;;;;;11.18;6.22;;;;;;;;;;4983547;28;20046;-64
2022/06/24 09:45:22;;;;;;;;;;;;;;;;;;4985787;28;20042;-64
2022/06/24 09:47:49;;;;;;;8.57;5.57;;;;;;;;;;4986293;28;19928;-64
2022/06/24 09:50:16;;;;;;;10.88;5.82;;;;;;;;;;4985782;28;20047;-64
2022/06/24 09:52:43;;;;;;;11.23;6.32;;;;;;;;;;4981859;28;20131;-63
2022/06/24 09:55:10;;;;;;;13.07;5.88;;;;;;;;;;4986259;28;20034;-64
2022/06/24 09:57:36;;;;;;;10.98;5.80;;;;;;;;;;4967224;28;20486;-64
2022/06/24 10:02:50;;;;;;;12.57;6.82;;;;;;;;;;4986656;28;20053;-65
2022/06/24 10:05:18;;;;;;;11.77;6.00;;;;;;;;;;4966807;28;20078;-64
2022/06/24 10:07:46;;;;;;;9.18;5.32;;;;;;;;;;4966930;28;20050;-65
2022/06/24 10:10:13;;;;;;;13.27;6.72;;;;;;;;;;4984900;28;20042;-64
2022/06/24 10:12:40;;;;;;;11.32;5.80;;;;;;;;;;4986099;28;20078;-64
2022/06/24 10:15:06;;;;;;;13.48;5.60;;;;;;;;;;4988114;28;20053;-64
2022/06/24 10:17:34;;;;;;;14.38;5.65;;;;;;;;;;4986175;28;20051;-64
2022/06/24 10:20:01;;;;;;;11.88;5.00;;;;;;;;;;4987142;28;20099;-64
2022/06/24 10:22:43;;;;;;;12.00;6.43;;;;;;;;;;4984757;28;20050;-64
2022/06/24 10:25:10;;;;;;;9.48;5.43;;;;;;;;;;4982673;28;20039;-64
2022/06/24 10:27:57;;;;;;;9.07;4.57;;;;;;;;;;4988474;28;20046;-64
2022/06/24 10:30:40;;;;;;;7.00;4.65;;;;;;;;;;4986052;28;20046;-64
2022/06/24 10:33:12;;;;;;;8.65;4.10;;;;;;;;;;4970226;28;20123;-64
2022/06/24 10:35:54;;;;;;;9.35;4.40;;;;;;;;;;4985934;28;20498;-64
2022/06/24 10:38:21;;;;;;;8.23;3.92;;;;;;;;;;4983402;28;20061;-64
2022/06/24 10:40:48;;;;;;;8.65;4.40;;;;;;;;;;4985111;28;20140;-64
2022/06/24 10:43:14;;;;;;;9.20;4.28;;;;;;;;;;4969312;28;20174;-64
2022/06/24 10:45:40;;;;;;;11.18;5.50;;;;;;;;;;4984794;28;20046;-64
2022/06/24 10:48:06;;;;;;;10.10;5.30;;;;;;;;;;4986251;28;20503;-64
2022/06/24 10:50:33;;;;;;;11.20;5.68;;;;;;;;;;4967934;28;20045;-64
2022/06/24 10:53:01;;;;;;;9.50;5.60;;;;;;;;;;4984303;28;20074;-64
2022/06/24 10:55:31;;;;;;;7.15;4.88;;;;;;;;;;4966220;28;20054;-64
2022/06/24 10:58:02;;;;;;;11.80;5.00;;;;;;;;;;4969209;28;20071;-64
2022/06/24 11:00:42;;;;;;;10.43;5.65;;;;;;;;;;4983755;28;20120;-64
2022/06/24 11:03:08;;;;;;;9.05;6.00;;;;;;;;;;4971733;28;20058;-64
2022/06/24 11:05:36;;;;;;;9.88;5.95;;;;;;;;;;4984179;28;20047;-64
2022/06/24 11:08:03;;;;;;;10.15;6.22;;;;;;;;;;4967917;28;20042;-64
2022/06/24 11:10:30;;;;;;;9.57;6.07;;;;;;;;;;4967629;28;20489;-64
2022/06/24 11:12:58;;;;;;;11.25;6.28;;;;;;;;;;4967229;28;20050;-64
2022/06/24 11:15:34;;;;;;;8.40;5.55;;;;;;;;;;4968884;28;20119;-64
2022/06/24 11:18:06;;;;;;;12.93;6.57;;;;;;;;;;4985933;28;20455;-64
2022/06/24 11:20:35;;;;;;;11.00;6.50;;;;;;;;;;4990837;28;20038;-64
2022/06/24 11:23:06;;;;;;;9.20;6.40;;;;;;;;;;4973021;28;20130;-64
2022/06/24 11:25:33;;;;;;;9.77;6.22;;;;;;;;;;4973776;28;20054;-64
2022/06/24 11:27:59;;;;;;;11.63;7.28;;;;;;;;;;4987553;28;20131;-65
2022/06/24 11:30:26;;;;;;;11.88;7.95;;;;;;;;;;4990199;28;20124;-64
2022/06/24 11:32:52;;;;;;;14.48;8.77;;;;;;;;;;4991751;28;20046;-64
2022/06/24 11:35:18;;;;;;;9.73;8.65;;;;;;;;;;4989727;28;20058;-64
2022/06/24 11:37:45;;;;;;;13.13;9.10;;;;;;;;;;4988756;28;20141;-64
2022/06/24 11:40:19;;;;;;;15.25;10.57;;;;;;;;;;4989526;28;20114;-64
2022/06/24 11:42:45;;;;;;;19.20;13.55;;;;;;;;;;4970172;28;20043;-64
2022/06/24 11:45:11;;;;;;;16.30;12.82;;;;;;;;;;4987744;28;20461;-64
2022/06/24 11:47:37;;;;;;;16.08;13.10;;;;;;;;;;4987038;28;20133;-64
2022/06/24 11:50:04;;;;;;;18.85;14.10;;;;;;;;;;4988363;28;20084;-64
2022/06/24 11:52:44;;;;;;;19.50;14.57;;;;;;;;;;4987565;28;20057;-64
2022/06/24 11:55:24;;;;;;;21.02;15.93;;;;;;;;;;4989241;28;20126;-64
2022/06/24 11:58:11;;;;;;;18.55;13.73;;;;;;;;;;4969571;28;20685;-63
2022/06/24 12:00:39;;;;;;;17.67;13.23;;;;;;;;;;4989773;28;20054;-64
2022/06/24 12:03:06;;;;;;;18.33;12.90;;;;;;;;;;4968173;28;20092;-63
2022/06/24 12:05:33;;;;;;;19.52;13.88;;;;;;;;;;4987931;28;20409;-67
2022/06/24 12:08:00;;;;;;;19.73;14.57;;;;;;;;;;4968705;28;20607;-63
2022/06/24 12:10:26;;;;;;;17.33;13.95;;;;;;;;;;4988739;28;20121;-64
2022/06/24 12:13:05;;;;;;;18.85;13.90;;;;;;;;;;4987393;28;20057;-64
2022/06/24 12:15:51;;;;;;;26.17;15.52;;;;;;;;;;4987816;28;20477;-63
2022/06/24 12:18:19;;;;;;;17.50;14.38;;;;;;;;;;4985679;28;20125;-63
2022/06/24 12:20:55;;;;;;;18.48;14.57;;;;;;;;;;4987139;28;20484;-63
2022/06/24 12:23:22;;;;;;;17.63;14.45;;;;;;;;;;4986714;28;20058;-63
2022/06/24 12:25:50;;;;;;;22.10;15.05;;;;;;;;;;4990831;28;20046;-64
2022/06/24 12:28:18;;;;;;;20.80;16.30;;;;;;;;;;4970496;28;20095;-64
2022/06/24 12:30:56;;;;;;;20.20;16.92;;;;;;;;;;4988597;28;20061;-64
2022/06/24 12:33:22;;;;;;;23.70;17.50;;;;;;;;;;4971252;28;20443;-64
2022/06/24 12:35:50;;;;;;;23.15;17.33;;;;;;;;;;4971381;28;20057;-64
2022/06/24 12:38:16;;;;;;;27.30;19.77;;;;;;;;;;4967604;28;20061;-64
2022/06/24 12:40:42;;;;;;;19.63;17.58;;;;;;;;;;4988685;28;20474;-64
2022/06/24 12:43:11;;;;;;;21.85;18.98;;;;;;;;;;4987740;28;20053;-64
2022/06/24 12:45:39;;;;;;;22.02;19.65;;;;;;;;;;4990958;28;20054;-64
2022/06/24 12:50:58;;;;;;;23.88;21.38;;;;;;;;;;4988370;28;20042;-64
2022/06/24 12:53:25;;;;;;;25.20;22.20;;;;;;;;;;4985114;28;20047;-64
2022/06/24 12:55:52;;;;;;;26.92;23.05;;;;;;;;;;4989388;28;20046;-64
2022/06/24 12:58:18;;;;;;;24.08;21.45;;;;;;;;;;4986691;28;20450;-64
2022/06/24 13:00:45;;;;;;;24.55;22.00;;;;;;;;;;4989200;28;20072;-64
2022/06/24 13:03:11;;;;;;;27.08;23.23;;;;;;;;;;4988059;28;20368;-64
2022/06/24 13:05:37;;;;;;;24.38;21.98;;;;;;;;;;4971696;28;20057;-64
2022/06/24 13:08:03;;;;;;;33.13;26.85;;;;;;;;;;4987469;28;20068;-64
2022/06/24 13:10:29;;;;;;;28.55;25.58;;;;;;;;;;4987661;28;20381;-64
2022/06/24 13:12:56;;;;;;;25.55;22.83;;;;;;;;;;4987454;28;20038;-65
2022/06/24 13:15:23;;;;;;;27.90;25.10;;;;;;;;;;4964244;28;20439;-65
2022/06/24 13:17:50;;;;;;;27.73;23.98;;;;;;;;;;4967368;28;20114;-64
2022/06/24 13:20:16;;;;;;;24.15;21.55;;;;;;;;;;4964581;28;20078;-65
2022/06/24 13:22:42;;;;;;;23.80;20.80;;;;;;;;;;4968475;28;20541;-64
2022/06/24 13:25:09;;;;;;;24.70;22.15;;;;;;;;;;4967475;28;20050;-65
2022/06/24 13:27:35;;;;;;;24.42;21.92;;;;;;;;;;4968046;28;20479;-64
2022/06/24 13:30:03;;;;;;;24.35;20.25;;;;;;;;;;4965471;28;20505;-64
2022/06/24 13:32:29;;;;;;;23.48;20.55;;;;;;;;;;4963291;28;20047;-64
2022/06/24 13:34:56;;;;;;;23.58;21.17;;;;;;;;;;4964359;28;21521;-64
2022/06/24 13:37:22;;;;;;;24.13;21.45;;;;;;;;;;4956730;28;20394;-64
2022/06/24 13:39:48;;;;;;;24.50;20.58;;;;;;;;;;4955308;28;20070;-64
2022/06/24 13:42:14;;;;;;;24.00;20.52;;;;;;;;;;4959871;28;20051;-64
2022/06/24 13:44:41;;;;;;;21.63;19.40;;;;;;;;;;4965762;28;20454;-65
2022/06/24 13:47:07;;;;;;;18.55;15.80;;;;;;;;;;4965286;28;20134;-64
2022/06/24 13:49:34;;;;;;;18.10;16.20;;;;;;;;;;4964769;28;20043;-64
2022/06/24 13:52:00;;;;;;;17.73;14.98;;;;;;;;;;4965528;28;20039;-64
2022/06/24 13:54:26;;;;;;;18.33;14.90;;;;;;;;;;4966520;28;20760;-64
2022/06/24 13:56:52;;;;;;;21.88;19.67;;;;;;;;;;4965750;28;20058;-64
2022/06/24 13:59:19;;;;;;;21.60;19.42;;;;;;;;;;4964850;28;20456;-64
2022/06/24 14:01:45;;;;;;;19.50;17.42;;;;;;;;;;4972886;28;20044;-64
2022/06/24 14:04:11;;;;;;;16.88;15.23;;;;;;;;;;4956241;28;20096;-64
2022/06/24 14:06:37;;;;;;;15.32;11.55;;;;;;;;;;4963840;28;20070;-64
2022/06/24 14:09:04;;;;;;;16.90;15.15;;;;;;;;;;4963120;28;20379;-65
2022/06/24 14:11:30;;;;;;;16.63;14.80;;;;;;;;;;4963236;28;20387;-64
2022/06/24 14:13:57;;;;;;;16.40;14.75;;;;;;;;;;4973367;28;20119;-64
2022/06/24 14:16:23;;;;;;;17.02;15.25;;;;;;;;;;4985139;28;20445;-64
2022/06/24 14:18:49;;;;;;;17.90;16.05;;;;;;;;;;4987000;28;20049;-64
2022/06/24 14:21:16;;;;;;;17.73;15.52;;;;;;;;;;4965529;28;20100;-64
2022/06/24 14:26:26;;;;;;;16.90;14.45;;;;;;;;;;4987955;28;20354;-64
2022/06/24 14:28:54;;;;;;;16.15;14.45;;;;;;;;;;4969915;28;20500;-64
2022/06/24 14:31:20;;;;;;;16.50;14.65;;;;;;;;;;4993314;28;20069;-64
2022/06/24 14:33:47;;;;;;;16.70;14.90;;;;;;;;;;4991860;28;20050;-64
2022/06/24 14:36:13;;;;;;;17.10;15.23;;;;;;;;;;4985719;28;20054;-64
2022/06/24 14:41:25;;;;;;;18.42;15.38;;;;;;;;;;4971057;28;20493;-64
2022/06/24 14:43:52;;;;;;;17.20;13.68;;;;;;;;;;4996071;28;20046;-64
2022/06/24 14:46:18;;;;;;;15.02;12.07;;;;;;;;;;4992519;28;20034;-63
2022/06/24 14:48:45;;;;;;;13.07;11.45;;;;;;;;;;4968145;28;20500;-64
2022/06/24 14:51:11;;;;;;;13.23;11.82;;;;;;;;;;4990654;28;20042;-64